• Join FlightAware (Why Join?)
  • Login
  • US Flag 
03:44AM EDT


 

Airport Tracker/Info


-or-


 

Live Flight TrackerFlight Track Log ✈ SWA975 ✈ 19-Oct-2013 ✈ KELP - KDAL

Flight Track Log - Related Links

Times and Time Zones

All times are in EDT time to prevent confusion due to time zone crossing. See the SWA975 flight status page for this flight to view local times or setup timezone preferences in your user account.

Time Position Orientation Groundspeed Altitude Reporting Facility
EDT Latitude Longitude Course Direction KTS MPH feet Rate Location/Type
06:52PM 31.7992 -106.3386 96° East 176 203 5,300  Level Albuquerque Center
06:53PM 31.7944 -106.3156 104° East 194 223 5,700 1,920 Climbing Albuquerque Center
06:53PM 31.7881 -106.2664 99° East 248 285 7,300 2,400 Climbing Albuquerque Center
06:54PM 31.7875 -106.2189 91° East 252 290 8,200 2,220 Climbing Albuquerque Center
06:54PM 31.7889 -106.1661 88° East 313 360 9,600 2,280 Climbing Albuquerque Center
06:55PM 31.7892 -106.1181 90° East 304 350 10,600 2,220 Climbing Albuquerque Center
06:56PM 31.7872 -106.0031 91° East 349 402 13,100 2,700 Climbing Albuquerque Center
06:57PM 31.7853 -105.8858 91° East 358 412 16,200 2,520 Climbing Albuquerque Center
06:58PM 31.7831 -105.7656 91° East 367 422 18,300 2,100 Climbing Albuquerque Center
06:59PM 31.7800 -105.6392 92° East 385 443 20,500 2,040 Climbing Albuquerque Center
07:00PM 31.7817 -105.5092 89° East 398 458 22,600 1,980 Climbing Albuquerque Center
07:01PM 31.7892 -105.3758 86° East 407 468 24,600 1,740 Climbing Albuquerque Center
07:02PM 31.7953 -105.2406 87° East 412 474 26,200 1,560 Climbing Albuquerque Center
07:03PM 31.8031 -105.0703 87° East 427 491 27,900 1,380 Climbing Albuquerque Center
07:04PM 31.8103 -104.9256 87° East 438 504 29,100 1,020 Climbing Albuquerque Center
07:05PM 31.8181 -104.7753 86° East 452 520 30,100 1,020 Climbing Albuquerque Center
07:06PM 31.8244 -104.6217 87° East 463 533 31,200 1,080 Climbing Albuquerque Center
07:07PM 31.8306 -104.4647 87° East 475 547 32,300 1,080 Climbing Albuquerque Center
07:08PM 31.8375 -104.3081 87° East 479 551 33,500 1,140 Climbing Albuquerque Center
07:09PM 31.8503 -104.1506 85° East 483 556 34,700 720 Climbing Albuquerque Center
07:10PM 31.8617 -103.9958 85° East 478 550 35,000 180 Climbing Albuquerque Center
07:11PM 31.8731 -103.8256 85° East 483 556 35,100  Climbing Albuquerque Center
07:12PM 31.8850 -103.6686 85° East 485 558 35,100  Level Albuquerque Center
07:13PM 31.8953 -103.5106 86° East 486 559 35,100  Level Albuquerque Center
07:14PM 31.9064 -103.3525 85° East 487 560 35,100  Level Albuquerque Center
07:15PM 31.9172 -103.1925 85° East 490 564 35,100 -60 Level Albuquerque Center
07:16PM 31.9292 -103.0064 86° East 490 564 35,000 -60 Descending Albuquerque Center
07:17PM 31.9389 -102.8453 86° East 492 566 35,000  Level Albuquerque Center
07:18PM 31.9503 -102.6819 85° East 483 556 35,000  Level Fort Worth Center
07:19PM 31.9592 -102.5233 86° East 483 556 35,000  Level Fort Worth Center
07:20PM 31.9694 -102.3672 86° East 477 549 35,000  Level Fort Worth Center
07:21PM 31.9817 -102.2111 85° East 477 549 35,000  Level Fort Worth Center
07:22PM 31.9900 -102.0497 86° East 477 549 35,000  Level Fort Worth Center
07:23PM 31.9978 -101.8936 87° East 477 549 35,000  Level Fort Worth Center
07:24PM 32.0075 -101.7322 86° East 482 555 35,000  Level Fort Worth Center
07:25PM 32.0150 -101.5711 87° East 482 555 35,000  Level Fort Worth Center
07:26PM 32.0244 -101.4122 86° East 482 555 35,000  Level Fort Worth Center
07:27PM 32.0294 -101.2458 88° East 487 560 35,000  Level Fort Worth Center
07:28PM 32.0383 -101.0894 86° East 487 560 35,000  Level Fort Worth Center
07:29PM 32.0472 -100.9281 86° East 487 560 35,100  Climbing Fort Worth Center
07:30PM 32.0539 -100.7642 87° East 492 566 35,100  Level Fort Worth Center
07:31PM 32.0600 -100.6000 87° East 497 572 35,100  Level Fort Worth Center
07:32PM 32.0683 -100.4386 86° East 497 572 35,100  Level Fort Worth Center
07:33PM 32.0764 -100.2722 87° East 497 572 35,100  Level Fort Worth Center
07:34PM 32.0822 -100.1056 88° East 497 572 35,100  Level Fort Worth Center
07:35PM 32.0961 -99.9392 84° East 502 578 35,100  Level Fort Worth Center
07:36PM 32.1097 -99.7703 85° East 507 583 35,100  Level Fort Worth Center
07:37PM 32.1231 -99.6039 85° East 507 583 35,100  Level Fort Worth Center
07:38PM 32.1386 -99.4325 84° East 513 590 35,100 -60 Level Fort Worth Center
07:39PM 32.1494 -99.2658 86° East 518 596 35,000  Descending Fort Worth Center
07:40PM 32.1644 -99.0944 84° East 518 596 35,100 -60 Climbing Fort Worth Center
07:41PM 32.1769 -98.9278 85° East 518 596 34,900 -1,560 Descending Fort Worth Center
07:42PM 32.1872 -98.7611 86° East 518 596 32,000 -2,760 Descending Fort Worth Center
07:43PM 32.2014 -98.5944 84° East 518 596 29,400 -2,760 Descending Fort Worth Center
07:44PM 32.2153 -98.4422 84° East 497 572 26,500 -2,640 Descending Fort Worth Center
07:45PM 32.2269 -98.2878 85° East 474 545 24,200 -2,280 Descending Fort Worth Center
07:46PM 32.2361 -98.1428 86° East 451 519 22,000 -2,280 Descending Fort Worth Center
07:47PM 32.2433 -98.0053 86° East 429 494 19,700 -2,100 Descending Fort Worth Center
07:48PM 32.2542 -97.8753 84° East 409 471 17,800 -2,100 Descending Fort Worth Center
07:49PM 32.2631 -97.7475 85° East 396 456 15,600 -2,100 Descending Fort Worth Center
07:50PM 32.2694 -97.6272 86° East 384 442 13,600 -1,860 Descending Fort Worth Center
07:51PM 32.2822 -97.5092 83° East 366 421 11,900 -1,320 Descending Fort Worth Center
07:52PM 32.3428 -97.4233 50° Northeast 332 382 11,000 -960 Descending Fort Worth Center
07:53PM 32.3844 -97.3347 61° Northeast 311 358 10,000 -1,020 Descending Fort Worth Center
07:54PM 32.4075 -97.2386 74° East 306 352 9,000 -1,140 Descending Fort Worth Center
07:55PM 32.4572 -97.1622 52° Northeast 290 334 7,800 -1,260 Descending Fort Worth Center
07:56PM 32.5094 -97.0956 47° Northeast 280 322 6,500 -1,380 Descending Fort Worth Center
07:57PM 32.5614 -97.0339 45° Northeast 270 311 5,100 -1,380 Descending Fort Worth Center
07:58PM 32.6156 -96.9719 44° Northeast 265 305 3,800 -1,020 Descending Fort Worth Center
07:59PM 32.6500 -96.9333 43° Northeast 224 258 3,500 -540 Descending Dallas / Fort Worth TRACON
08:00PM 32.6833 -96.8833 52° Northeast 196 226 3,000 -480 Descending Dallas / Fort Worth TRACON
08:01PM 32.7167 -96.8333 52° Northeast 186 214 2,600 -480 Descending Dallas / Fort Worth TRACON
08:02PM 32.7500 -96.8000 40° Northeast 166 191 2,100 -480 Descending Dallas / Fort Worth TRACON
08:03PM 32.8000 -96.8000 360° North 138 159 1,600 -660 Descending Dallas / Fort Worth TRACON
08:04PM 32.8167 -96.8333 301° West 142 163 800 -840 Descending Dallas / Fort Worth TRACON
08:06PM 32.8333 -96.8500 26° Northeast  Level FlightAware Approximate
08:13PM 32.8471 -96.8518 26° Northeast  Level Estimated